Time;durP1;ratioP1;P1;durP2;ratioP2;P2;SDS_P1;SDS_P2;PMS_P1;PMS_P2;Temp;Humidity;BMP_temperature;BMP_pressure;BME280_temperature;BME280_humidity;BME280_pressure;Samples;Min_cycle;Max_cycle;Signal;HPM_P1;HPM_P2
2023/09/09 00:00:15;;;;;;;;;;;16.60;68.60;;;;;;4144246;28;19921;-86
2023/09/09 00:02:16;;;;;;;;;;;16.60;68.70;;;;;;4146571;28;19922;-85
2023/09/09 00:04:16;;;;;;;;;;;16.60;68.80;;;;;;4155823;28;20864;-85
2023/09/09 00:06:17;;;;;;;;;;;16.60;68.70;;;;;;4164823;28;19924;-84
2023/09/09 00:08:19;;;;;;;;;;;16.50;68.60;;;;;;4141547;28;19953;-85
2023/09/09 00:10:39;;;;;;;;;;;16.60;68.80;;;;;;4172098;28;20016;-85
2023/09/09 00:13:00;;;;;;;;;;;16.50;68.60;;;;;;4187623;28;19905;-86
2023/09/09 00:15:17;;;;;;;;;;;16.50;68.50;;;;;;4158897;28;20060;-85
2023/09/09 00:17:38;;;;;;;;;;;16.40;68.50;;;;;;4158991;28;20041;-85
2023/09/09 00:19:58;;;;;;;;;;;16.50;68.80;;;;;;4155242;28;19924;-85
2023/09/09 00:22:19;;;;;;;;;;;16.40;68.80;;;;;;4151539;28;19921;-85
2023/09/09 00:24:39;;;;;;;;;;;16.40;68.90;;;;;;4151940;28;19941;-85
2023/09/09 00:27:00;;;;;;;;;;;16.40;68.80;;;;;;4152007;28;19952;-85
2023/09/09 00:29:21;;;;;;;;;;;16.40;68.70;;;;;;4155735;28;21308;-84
2023/09/09 00:31:22;;;;;;;;;;;16.30;68.70;;;;;;4152549;28;20019;-85
2023/09/09 00:33:42;;;;;;;;;;;16.30;68.70;;;;;;4150282;28;20761;-84
2023/09/09 00:36:03;;;;;;;;;;;16.30;68.70;;;;;;4152313;28;19917;-85
2023/09/09 00:38:23;;;;;;;;;;;16.30;68.70;;;;;;4151541;28;20484;-85
2023/09/09 00:41:04;;;;;;;;;;;16.30;69.00;;;;;;4162743;28;19920;-85
2023/09/09 00:43:24;;;;;;;;;;;16.20;69.00;;;;;;4154494;28;19928;-85
2023/09/09 00:45:28;;;;;;;;;;;16.20;69.20;;;;;;4151375;28;19921;-85
2023/09/09 00:47:29;;;;;;;;;;;16.30;69.20;;;;;;4153438;28;19943;-86
2023/09/09 00:49:32;;;;;;;;;;;16.30;69.20;;;;;;4151048;28;19948;-86
2023/09/09 00:51:33;;;;;;;;;;;16.20;69.10;;;;;;4153469;28;21938;-85
2023/09/09 00:53:34;;;;;;;;;;;16.20;68.80;;;;;;4153702;28;19925;-85
2023/09/09 00:55:39;;;;;;;;;;;16.10;68.80;;;;;;4147388;28;19917;-85
2023/09/09 00:58:02;;;;;;;;;;;16.20;69.00;;;;;;4161373;28;19919;-85
2023/09/09 01:00:23;;;;;;;;;;;16.20;69.10;;;;;;4150087;28;20350;-85
2023/09/09 01:02:44;;;;;;;;;;;16.10;69.30;;;;;;4151036;28;19921;-85
2023/09/09 01:05:08;;;;;;;;;;;16.10;69.40;;;;;;4145307;28;19996;-86
2023/09/09 01:07:40;;;;;;;;;;;16.00;69.30;;;;;;4151331;28;20306;-86
2023/09/09 01:10:01;;;;;;;;;;;16.00;69.50;;;;;;4152017;28;19928;-85
2023/09/09 01:12:25;;;;;;;;;;;16.00;69.60;;;;;;4154929;28;20429;-85
2023/09/09 01:14:45;;;;;;;;;;;16.00;69.70;;;;;;4144817;28;20145;-85
2023/09/09 01:17:09;;;;;;;;;;;16.00;69.70;;;;;;4148388;28;20019;-85
2023/09/09 01:19:31;;;;;;;;;;;15.90;69.60;;;;;;4151310;28;19923;-85
2023/09/09 01:21:53;;;;;;;;;;;15.90;69.70;;;;;;4147166;28;20691;-85
2023/09/09 01:24:15;;;;;;;;;;;15.90;69.80;;;;;;4149600;28;20509;-84
2023/09/09 01:26:35;;;;;;;;;;;15.90;69.80;;;;;;4148740;28;20350;-85
2023/09/09 01:28:56;;;;;;;;;;;15.80;69.80;;;;;;4149421;28;19925;-85
2023/09/09 01:31:16;;;;;;;;;;;15.80;69.80;;;;;;4149941;28;20316;-85
2023/09/09 01:33:37;;;;;;;;;;;15.80;69.90;;;;;;4164297;28;20018;-84
2023/09/09 01:35:58;;;;;;;;;;;15.80;69.90;;;;;;4149094;28;21939;-85
2023/09/09 01:38:18;;;;;;;;;;;15.80;69.90;;;;;;4150492;28;20474;-85
2023/09/09 01:40:39;;;;;;;;;;;15.80;70.00;;;;;;4149909;28;19918;-85
2023/09/09 01:42:43;;;;;;;;;;;15.80;70.10;;;;;;4150265;28;20012;-84
2023/09/09 01:44:45;;;;;;;;;;;15.70;70.00;;;;;;4150591;28;19917;-85
2023/09/09 01:46:45;;;;;;;;;;;15.70;70.00;;;;;;4150544;28;20036;-84
2023/09/09 01:48:49;;;;;;;;;;;15.70;70.10;;;;;;4137795;28;20043;-87
2023/09/09 01:50:57;;;;;;;;;;;15.60;70.10;;;;;;4164876;28;19928;-87
2023/09/09 01:53:03;;;;;;;;;;;15.70;70.20;;;;;;4170038;28;19921;-84
2023/09/09 01:55:09;;;;;;;;;;;15.60;70.10;;;;;;4137282;28;19924;-85
2023/09/09 01:57:21;;;;;;;;;;;15.60;70.10;;;;;;4148848;28;20291;-84
2023/09/09 01:59:22;;;;;;;;;;;15.60;70.20;;;;;;4157164;28;20326;-85
2023/09/09 02:01:23;;;;;;;;;;;15.60;70.20;;;;;;4150809;28;19933;-84
2023/09/09 02:03:25;;;;;;;;;;;15.60;70.30;;;;;;4148575;28;19921;-85
2023/09/09 02:05:26;;;;;;;;;;;15.60;70.30;;;;;;4143819;28;20334;-84
2023/09/09 02:07:29;;;;;;;;;;;15.50;70.20;;;;;;4150733;28;19959;-85
2023/09/09 02:09:30;;;;;;;;;;;15.50;70.20;;;;;;4148792;28;19921;-85
2023/09/09 02:11:34;;;;;;;;;;;15.50;70.20;;;;;;4152101;28;20006;-84
2023/09/09 02:13:35;;;;;;;;;;;15.50;70.20;;;;;;4165734;28;19913;-85
2023/09/09 02:15:36;;;;;;;;;;;15.40;70.20;;;;;;4153950;28;20315;-85
2023/09/09 02:17:45;;;;;;;;;;;15.40;70.30;;;;;;4149702;28;19944;-85
2023/09/09 02:19:49;;;;;;;;;;;15.30;70.20;;;;;;4149866;28;19941;-85
2023/09/09 02:21:50;;;;;;;;;;;15.40;70.30;;;;;;4149005;28;20020;-85
2023/09/09 02:23:54;;;;;;;;;;;15.40;70.40;;;;;;4150870;28;19915;-85
2023/09/09 02:25:54;;;;;;;;;;;15.50;70.50;;;;;;4148858;28;19940;-85
2023/09/09 02:28:15;;;;;;;;;;;15.40;70.40;;;;;;4148584;28;19960;-85
2023/09/09 02:30:36;;;;;;;;;;;15.40;70.40;;;;;;4146201;28;19922;-84
2023/09/09 02:32:57;;;;;;;;;;;15.40;70.50;;;;;;4148681;28;19959;-84
2023/09/09 02:35:17;;;;;;;;;;;15.40;70.70;;;;;;4149220;28;19918;-85
2023/09/09 02:37:38;;;;;;;;;;;15.50;70.90;;;;;;4142444;28;19917;-86
2023/09/09 02:39:59;;;;;;;;;;;15.40;70.80;;;;;;4150649;28;20028;-85
2023/09/09 02:42:23;;;;;;;;;;;15.40;70.80;;;;;;4152574;28;19924;-85
2023/09/09 02:44:29;;;;;;;;;;;15.40;70.80;;;;;;4168711;28;19921;-85
2023/09/09 02:46:49;;;;;;;;;;;15.40;71.00;;;;;;4153167;28;19921;-85
2023/09/09 02:49:10;;;;;;;;;;;15.40;70.90;;;;;;4155901;28;19917;-86
2023/09/09 02:51:39;;;;;;;;;;;15.30;70.90;;;;;;4160322;28;19921;-85
2023/09/09 02:54:03;;;;;;;;;;;15.40;70.90;;;;;;4149953;28;19913;-85
2023/09/09 02:56:27;;;;;;;;;;;15.30;70.90;;;;;;4154255;28;19924;-85
2023/09/09 02:58:47;;;;;;;;;;;15.30;71.00;;;;;;4149005;28;19956;-85
2023/09/09 03:01:16;;;;;;;;;;;15.30;71.00;;;;;;4147198;28;20166;-87
2023/09/09 03:03:36;;;;;;;;;;;15.40;71.20;;;;;;4148589;28;19924;-85
2023/09/09 03:05:58;;;;;;;;;;;15.30;71.30;;;;;;4154310;28;19951;-86
2023/09/09 03:08:21;;;;;;;;;;;15.30;72.10;;;;;;4151958;28;19925;-85
2023/09/09 03:10:45;;;;;;;;;;;15.30;71.50;;;;;;4153862;28;19917;-85
2023/09/09 03:13:09;;;;;;;;;;;15.30;71.60;;;;;;4148738;28;19917;-85
2023/09/09 03:15:32;;;;;;;;;;;15.40;71.60;;;;;;4149556;28;19956;-86
2023/09/09 03:17:52;;;;;;;;;;;15.30;71.60;;;;;;4155099;28;19921;-85
2023/09/09 03:19:56;;;;;;;;;;;15.20;71.40;;;;;;4152029;28;20335;-85
2023/09/09 03:21:57;;;;;;;;;;;15.20;71.40;;;;;;4152265;28;19914;-86
2023/09/09 03:23:58;;;;;;;;;;;15.20;71.40;;;;;;4150659;28;19924;-85
2023/09/09 03:26:05;;;;;;;;;;;15.20;71.40;;;;;;4150861;28;20453;-85
2023/09/09 03:28:06;;;;;;;;;;;15.20;71.50;;;;;;4133742;28;20331;-86
2023/09/09 03:30:09;;;;;;;;;;;15.10;71.40;;;;;;4136241;28;19952;-85
2023/09/09 03:32:09;;;;;;;;;;;15.10;71.40;;;;;;4148069;28;20739;-85
2023/09/09 03:34:27;;;;;;;;;;;15.10;71.40;;;;;;4170385;28;20437;-83
2023/09/09 03:36:30;;;;;;;;;;;15.00;71.40;;;;;;4170929;28;20010;-83
2023/09/09 03:38:40;;;;;;;;;;;15.10;71.50;;;;;;4151914;28;19917;-85
2023/09/09 03:40:44;;;;;;;;;;;15.10;71.40;;;;;;4151024;28;19909;-85
2023/09/09 03:42:47;;;;;;;;;;;15.00;71.50;;;;;;4148686;28;19968;-85
2023/09/09 03:44:48;;;;;;;;;;;15.10;71.60;;;;;;4150351;28;20291;-85
2023/09/09 03:46:48;;;;;;;;;;;15.00;71.60;;;;;;4150669;28;19948;-86
2023/09/09 03:48:49;;;;;;;;;;;15.00;71.60;;;;;;4170673;28;19943;-85
2023/09/09 03:50:50;;;;;;;;;;;15.00;71.60;;;;;;4153707;28;19925;-85
2023/09/09 03:52:51;;;;;;;;;;;15.00;71.60;;;;;;4148322;28;19999;-84
2023/09/09 03:54:52;;;;;;;;;;;15.00;71.70;;;;;;4151891;28;19983;-85
2023/09/09 03:57:07;;;;;;;;;;;14.90;71.70;;;;;;4162513;28;20001;-85
2023/09/09 03:59:33;;;;;;;;;;;14.90;71.70;;;;;;4153055;28;19960;-84
2023/09/09 04:01:38;;;;;;;;;;;14.90;71.70;;;;;;4152992;28;19921;-84
2023/09/09 04:03:40;;;;;;;;;;;14.90;71.60;;;;;;4139982;28;20319;-85
2023/09/09 04:05:47;;;;;;;;;;;14.90;71.60;;;;;;4150142;28;19913;-85
2023/09/09 04:07:58;;;;;;;;;;;14.90;71.60;;;;;;4151614;28;19952;-85
2023/09/09 04:10:17;;;;;;;;;;;14.80;71.60;;;;;;4139810;28;19967;-85
2023/09/09 04:12:20;;;;;;;;;;;14.80;71.50;;;;;;4165886;28;19909;-84
2023/09/09 04:14:26;;;;;;;;;;;14.70;71.60;;;;;;4137737;28;19971;-84
2023/09/09 04:16:54;;;;;;;;;;;14.80;71.70;;;;;;4152889;28;19913;-84
2023/09/09 04:19:15;;;;;;;;;;;14.70;71.70;;;;;;4144037;28;19947;-84
2023/09/09 04:21:36;;;;;;;;;;;14.70;71.70;;;;;;4151907;28;19971;-83
2023/09/09 04:23:37;;;;;;;;;;;14.70;71.70;;;;;;4161095;28;20380;-84
2023/09/09 04:26:04;;;;;;;;;;;14.70;71.70;;;;;;4150168;28;19917;-85
2023/09/09 04:28:26;;;;;;;;;;;14.50;71.60;;;;;;4157514;28;19936;-84
2023/09/09 04:31:13;;;;;;;;;;;14.60;71.70;;;;;;4142222;28;20075;-84
2023/09/09 04:33:18;;;;;;;;;;;14.60;71.70;;;;;;4152565;28;19921;-84
2023/09/09 04:35:41;;;;;;;;;;;14.60;71.70;;;;;;4154183;28;19919;-84
2023/09/09 04:38:02;;;;;;;;;;;14.50;71.70;;;;;;4152008;28;19921;-83
2023/09/09 04:40:38;;;;;;;;;;;14.60;71.90;;;;;;4152707;28;19909;-83
2023/09/09 04:42:59;;;;;;;;;;;14.60;71.80;;;;;;4175966;28;19920;-83
2023/09/09 04:45:20;;;;;;;;;;;14.50;71.80;;;;;;4170581;28;20401;-84
2023/09/09 04:47:47;;;;;;;;;;;14.50;71.90;;;;;;4167903;28;19905;-85
2023/09/09 04:50:14;;;;;;;;;;;14.50;71.80;;;;;;4172148;28;19926;-84
2023/09/09 04:52:44;;;;;;;;;;;14.40;71.80;;;;;;4168782;28;20077;-84
2023/09/09 04:54:47;;;;;;;;;;;14.40;71.80;;;;;;4141076;28;19921;-84
2023/09/09 04:57:08;;;;;;;;;;;14.40;72.00;;;;;;4151916;28;20057;-84
2023/09/09 04:59:22;;;;;;;;;;;14.50;72.00;;;;;;4167713;28;19913;-84
2023/09/09 05:01:33;;;;;;;;;;;14.50;72.10;;;;;;4166940;28;19917;-84
2023/09/09 05:03:44;;;;;;;;;;;14.40;72.10;;;;;;4136263;28;19932;-84
2023/09/09 05:05:53;;;;;;;;;;;14.40;72.10;;;;;;4150783;28;20389;-84
2023/09/09 05:08:07;;;;;;;;;;;14.40;72.20;;;;;;4160131;28;20222;-86
2023/09/09 05:10:13;;;;;;;;;;;14.40;72.10;;;;;;4131595;28;19929;-84
2023/09/09 05:12:44;;;;;;;;;;;14.40;72.20;;;;;;4133449;28;20463;-84
2023/09/09 05:14:44;;;;;;;;;;;14.40;72.20;;;;;;4153654;28;19921;-84
2023/09/09 05:16:56;;;;;;;;;;;14.40;72.30;;;;;;4148916;28;19917;-84
2023/09/09 05:19:11;;;;;;;;;;;14.30;72.20;;;;;;4149387;28;19917;-85
2023/09/09 05:21:24;;;;;;;;;;;14.30;72.30;;;;;;4150917;28;19992;-84
2023/09/09 05:23:31;;;;;;;;;;;14.30;72.30;;;;;;4152136;28;19921;-84
2023/09/09 05:25:48;;;;;;;;;;;14.40;72.50;;;;;;4139518;28;20012;-84
2023/09/09 05:27:52;;;;;;;;;;;14.30;72.50;;;;;;4168090;28;19988;-84
2023/09/09 05:30:02;;;;;;;;;;;14.50;72.80;;;;;;4135255;28;19918;-84
2023/09/09 05:32:16;;;;;;;;;;;14.40;72.80;;;;;;4150887;28;19924;-85
2023/09/09 05:34:17;;;;;;;;;;;14.40;72.90;;;;;;4135496;28;20014;-84
2023/09/09 05:36:22;;;;;;;;;;;14.40;73.00;;;;;;4150425;28;20342;-84
2023/09/09 05:38:26;;;;;;;;;;;14.50;73.20;;;;;;4139417;28;19921;-85
2023/09/09 05:40:34;;;;;;;;;;;14.50;73.30;;;;;;4152663;28;19921;-85
2023/09/09 05:42:35;;;;;;;;;;;14.50;73.30;;;;;;4150464;28;20651;-84
2023/09/09 05:44:55;;;;;;;;;;;14.50;73.40;;;;;;4149374;28;19951;-85
2023/09/09 05:46:55;;;;;;;;;;;14.50;73.50;;;;;;4148726;28;19925;-84
2023/09/09 05:48:59;;;;;;;;;;;14.60;73.70;;;;;;4158249;28;19921;-85
2023/09/09 05:51:01;;;;;;;;;;;14.60;73.70;;;;;;4175244;28;19921;-84
2023/09/09 05:53:06;;;;;;;;;;;14.60;73.80;;;;;;4161783;28;19928;-85
2023/09/09 05:55:10;;;;;;;;;;;14.70;73.80;;;;;;4172970;28;19905;-84
2023/09/09 05:57:11;;;;;;;;;;;14.70;74.10;;;;;;4160221;28;19984;-84
2023/09/09 05:59:29;;;;;;;;;;;14.80;74.30;;;;;;4172762;28;19913;-85
2023/09/09 06:01:53;;;;;;;;;;;14.80;74.50;;;;;;4175366;28;19960;-84
2023/09/09 06:04:16;;;;;;;;;;;14.90;74.70;;;;;;4184449;28;20070;-84
2023/09/09 06:06:46;;;;;;;;;;;15.00;74.80;;;;;;4167414;28;19913;-89
2023/09/09 06:09:13;;;;;;;;;;;15.10;74.70;;;;;;4169142;28;20108;-88
2023/09/09 06:11:33;;;;;;;;;;;15.10;74.70;;;;;;4151544;28;19929;-87
2023/09/09 06:13:46;;;;;;;;;;;15.20;74.80;;;;;;4133744;28;19921;-88
2023/09/09 06:15:55;;;;;;;;;;;15.30;74.80;;;;;;4153815;28;19948;-86
2023/09/09 06:17:57;;;;;;;;;;;15.40;74.90;;;;;;4154514;28;19917;-88
2023/09/09 06:20:17;;;;;;;;;;;15.40;75.00;;;;;;4151154;28;19940;-87
2023/09/09 06:22:51;;;;;;;;;;;15.50;75.20;;;;;;4150627;28;20069;-87
2023/09/09 06:25:11;;;;;;;;;;;15.60;75.20;;;;;;4148628;28;19913;-88
2023/09/09 06:27:32;;;;;;;;;;;15.60;75.50;;;;;;4153575;28;20014;-87
2023/09/09 06:29:53;;;;;;;;;;;15.70;75.90;;;;;;4149259;28;20019;-87
2023/09/09 06:32:31;;;;;;;;;;;15.90;76.70;;;;;;4156287;28;19917;-88
2023/09/09 06:34:52;;;;;;;;;;;15.90;77.40;;;;;;4152749;28;20202;-87
2023/09/09 06:37:12;;;;;;;;;;;16.10;78.20;;;;;;4153583;28;19917;-89
2023/09/09 06:39:33;;;;;;;;;;;16.20;78.70;;;;;;4154446;28;19928;-87
2023/09/09 06:41:54;;;;;;;;;;;16.30;79.80;;;;;;4156588;28;19931;-86
2023/09/09 06:44:21;;;;;;;;;;;16.40;79.30;;;;;;4154930;28;19921;-87
2023/09/09 06:46:44;;;;;;;;;;;16.50;78.80;;;;;;4167634;28;19921;-86
2023/09/09 06:49:05;;;;;;;;;;;16.60;79.00;;;;;;4156817;28;19996;-87
2023/09/09 06:51:31;;;;;;;;;;;16.80;78.70;;;;;;4160326;28;20466;-86
2023/09/09 06:53:55;;;;;;;;;;;16.90;78.60;;;;;;4152721;28;19917;-87
2023/09/09 06:56:18;;;;;;;;;;;17.00;78.20;;;;;;4158332;28;19971;-86
2023/09/09 06:58:39;;;;;;;;;;;17.10;78.10;;;;;;4159443;28;19955;-88
2023/09/09 07:01:02;;;;;;;;;;;17.20;78.20;;;;;;4157576;28;19953;-84
2023/09/09 07:03:23;;;;;;;;;;;17.30;78.10;;;;;;4162373;28;19921;-84
2023/09/09 07:05:43;;;;;;;;;;;17.50;78.10;;;;;;4174237;28;19917;-84
2023/09/09 07:08:04;;;;;;;;;;;17.60;78.10;;;;;;4149509;28;19956;-83
2023/09/09 07:10:24;;;;;;;;;;;17.70;78.00;;;;;;4164559;28;19960;-84
2023/09/09 07:12:45;;;;;;;;;;;17.80;77.90;;;;;;4159193;28;19921;-84
2023/09/09 07:15:11;;;;;;;;;;;17.90;77.80;;;;;;4166097;28;19924;-84
2023/09/09 07:17:38;;;;;;;;;;;18.00;77.80;;;;;;4169503;28;19913;-84
2023/09/09 07:19:59;;;;;;;;;;;18.20;77.80;;;;;;4172369;28;20167;-84
2023/09/09 07:22:20;;;;;;;;;;;18.30;77.70;;;;;;4163192;28;19917;-84
2023/09/09 07:24:40;;;;;;;;;;;18.50;77.70;;;;;;4157914;28;19968;-84
2023/09/09 07:27:04;;;;;;;;;;;18.60;77.70;;;;;;4157886;28;19924;-83
2023/09/09 07:29:24;;;;;;;;;;;18.60;77.50;;;;;;4172108;28;19924;-83
2023/09/09 07:31:45;;;;;;;;;;;18.80;77.50;;;;;;4170794;28;19935;-84
2023/09/09 07:34:05;;;;;;;;;;;18.90;77.40;;;;;;4157230;28;19921;-83
2023/09/09 07:36:26;;;;;;;;;;;19.00;77.30;;;;;;4157441;28;19921;-82
2023/09/09 07:38:46;;;;;;;;;;;19.10;77.20;;;;;;4160898;28;19916;-82
2023/09/09 07:41:07;;;;;;;;;;;19.20;77.00;;;;;;4161965;28;19917;-84
2023/09/09 07:43:26;;;;;;;;;;;19.40;77.00;;;;;;4157534;28;19964;-83
2023/09/09 07:45:47;;;;;;;;;;;19.50;77.00;;;;;;4152733;28;19923;-84
2023/09/09 07:48:06;;;;;;;;;;;19.60;77.30;;;;;;4157860;28;19983;-83
2023/09/09 07:50:25;;;;;;;;;;;19.70;76.40;;;;;;4153571;28;19968;-83
2023/09/09 07:52:45;;;;;;;;;;;19.80;76.40;;;;;;4157206;28;19959;-83
2023/09/09 07:55:04;;;;;;;;;;;19.90;76.30;;;;;;4157371;28;19920;-84
2023/09/09 07:57:26;;;;;;;;;;;20.00;76.30;;;;;;4159231;28;19920;-83
2023/09/09 07:59:47;;;;;;;;;;;20.10;75.80;;;;;;4161797;28;19960;-84
2023/09/09 08:02:07;;;;;;;;;;;20.30;75.90;;;;;;4158310;28;19920;-83
2023/09/09 08:04:26;;;;;;;;;;;20.40;75.80;;;;;;4157334;28;19924;-85
2023/09/09 08:06:46;;;;;;;;;;;20.40;75.60;;;;;;4160160;28;20413;-84
2023/09/09 08:09:06;;;;;;;;;;;20.60;75.50;;;;;;4157173;28;19983;-85
2023/09/09 08:11:25;;;;;;;;;;;20.60;75.20;;;;;;4156458;28;19944;-83
2023/09/09 08:13:44;;;;;;;;;;;20.80;75.10;;;;;;4152748;28;20030;-83
2023/09/09 08:16:03;;;;;;;;;;;20.90;75.00;;;;;;4157195;28;20445;-86
2023/09/09 08:18:22;;;;;;;;;;;21.00;74.70;;;;;;4162124;28;20040;-83
2023/09/09 08:20:42;;;;;;;;;;;21.10;74.60;;;;;;4166770;28;19920;-83
2023/09/09 08:23:02;;;;;;;;;;;21.20;74.20;;;;;;4159902;28;19920;-85
2023/09/09 08:25:21;;;;;;;;;;;21.20;73.40;;;;;;4159019;28;20397;-84
2023/09/09 08:27:40;;;;;;;;;;;21.40;73.10;;;;;;4161009;28;19963;-85
2023/09/09 08:30:00;;;;;;;;;;;21.50;73.20;;;;;;4158451;28;19928;-84
2023/09/09 08:32:19;;;;;;;;;;;21.60;73.00;;;;;;4154199;28;19929;-85
2023/09/09 08:34:39;;;;;;;;;;;21.70;72.80;;;;;;4155270;28;19971;-84
2023/09/09 08:36:58;;;;;;;;;;;21.90;72.50;;;;;;4155793;28;19924;-84
2023/09/09 08:39:19;;;;;;;;;;;21.90;72.40;;;;;;4170374;28;19924;-84
2023/09/09 08:41:49;;;;;;;;;;;22.10;72.30;;;;;;4158674;28;19932;-85
2023/09/09 08:44:15;;;;;;;;;;;22.20;71.90;;;;;;4158184;28;19968;-86
2023/09/09 08:46:35;;;;;;;;;;;22.30;71.90;;;;;;4159608;28;19963;-85
2023/09/09 08:49:14;;;;;;;;;;;22.50;71.60;;;;;;4163756;28;19944;-90
2023/09/09 08:51:48;;;;;;;;;;;22.60;71.60;;;;;;4156807;28;19961;-87
2023/09/09 08:54:09;;;;;;;;;;;22.70;71.00;;;;;;4165783;28;20349;-86
2023/09/09 08:56:28;;;;;;;;;;;22.80;70.80;;;;;;4157058;28;19924;-87
2023/09/09 09:01:28;;;;;;;;;;;23.10;71.40;;;;;;4108456;28;20004;-86
2023/09/09 09:03:50;;;;;;;;;;;23.20;68.20;;;;;;4095017;28;19921;-87
2023/09/09 09:06:12;;;;;;;;;;;23.30;69.40;;;;;;4097077;28;20382;-87
2023/09/09 09:08:33;;;;;;;;;;;23.40;69.50;;;;;;4114264;28;19923;-87
2023/09/09 09:10:54;;;;;;;;;;;23.50;70.10;;;;;;4110595;28;19924;-88
2023/09/09 09:13:13;;;;;;;;;;;23.60;68.50;;;;;;4101245;28;19964;-87
2023/09/09 09:15:35;;;;;;;;;;;23.70;66.60;;;;;;4113750;28;20434;-87
2023/09/09 09:17:58;;;;;;;;;;;23.80;68.50;;;;;;4117833;28;19925;-88
2023/09/09 09:23:31;;;;;;;;;;;24.00;67.60;;;;;;4110069;28;19925;-87
2023/09/09 09:25:50;;;;;;;;;;;24.20;68.80;;;;;;4108576;28;19991;-86
2023/09/09 09:31:20;;;;;;;;;;;24.40;67.60;;;;;;4091811;28;19922;-86
2023/09/09 09:33:45;;;;;;;;;;;24.50;67.10;;;;;;4087832;28;20470;-85
2023/09/09 09:38:15;;;;;;;;;;;24.80;68.00;;;;;;4483928;23;20119;-86
2023/09/09 09:43:31;;;;;;;;;;;24.90;67.60;;;;;;4156914;28;19924;-85
2023/09/09 09:45:50;;;;;;;;;;;25.10;66.30;;;;;;4155005;28;19976;-85
2023/09/09 09:54:46;;;;;;;;;;;25.40;66.50;;;;;;4156530;28;20402;-85
2023/09/09 10:00:32;;;;;;;;;;;25.50;59.80;;;;;;4142415;28;19932;-85
2023/09/09 10:02:53;;;;;;;;;;;25.60;63.20;;;;;;4171493;28;19924;-85
2023/09/09 10:05:13;;;;;;;;;;;25.80;61.30;;;;;;4157704;28;20455;-85
2023/09/09 10:07:59;;;;;;;;;;;25.80;62.40;;;;;;4155066;28;20456;-87
2023/09/09 10:10:23;;;;;;;;;;;25.90;63.30;;;;;;4122145;28;19925;-87
2023/09/09 10:12:48;;;;;;;;;;;26.00;60.60;;;;;;4124897;28;20045;-85
2023/09/09 10:15:07;;;;;;;;;;;26.10;61.60;;;;;;4126060;28;20720;-84
2023/09/09 10:17:28;;;;;;;;;;;26.20;59.70;;;;;;4125246;28;20900;-85
2023/09/09 10:19:49;;;;;;;;;;;26.30;61.30;;;;;;4125858;28;19925;-84
2023/09/09 10:22:28;;;;;;;;;;;26.40;61.40;;;;;;4126767;28;19988;-86
2023/09/09 10:24:49;;;;;;;;;;;26.40;60.90;;;;;;4123790;28;19960;-85
2023/09/09 10:27:08;;;;;;;;;;;26.50;60.80;;;;;;4123141;28;19921;-86
2023/09/09 10:29:28;;;;;;;;;;;26.60;60.60;;;;;;4108479;28;20388;-84
2023/09/09 10:31:59;;;;;;;;;;;26.70;60.60;;;;;;4122393;28;20560;-85
2023/09/09 10:34:20;;;;;;;;;;;26.70;61.60;;;;;;4124329;28;19968;-84
2023/09/09 10:36:40;;;;;;;;;;;26.80;61.20;;;;;;4123719;28;20604;-88
2023/09/09 10:38:59;;;;;;;;;;;26.90;59.80;;;;;;4108932;28;20034;-85
2023/09/09 10:41:18;;;;;;;;;;;27.00;60.10;;;;;;4124783;28;19971;-84
2023/09/09 10:43:40;;;;;;;;;;;27.00;58.40;;;;;;4122983;28;19975;-84
2023/09/09 10:46:32;;;;;;;;;;;27.10;57.10;;;;;;4125489;28;19921;-86
2023/09/09 10:48:51;;;;;;;;;;;27.20;57.60;;;;;;4092835;28;19925;-85
2023/09/09 10:51:13;;;;;;;;;;;27.30;58.70;;;;;;4104851;28;19933;-85
2023/09/09 10:53:32;;;;;;;;;;;27.30;58.60;;;;;;4105552;28;19956;-85
2023/09/09 10:55:53;;;;;;;;;;;27.40;58.10;;;;;;4107735;28;20033;-87
2023/09/09 10:58:16;;;;;;;;;;;27.40;56.30;;;;;;4101847;28;20013;-85
2023/09/09 11:00:39;;;;;;;;;;;27.50;57.40;;;;;;4092334;28;19920;-86
2023/09/09 11:02:58;;;;;;;;;;;27.50;57.00;;;;;;4098626;28;20106;-86
2023/09/09 11:05:19;;;;;;;;;;;27.60;53.30;;;;;;4108177;28;19946;-86
2023/09/09 11:08:12;;;;;;;;;;;27.70;57.20;;;;;;4096291;28;20344;-87
2023/09/09 11:10:33;;;;;;;;;;;27.70;57.10;;;;;;4110278;28;19965;-88
2023/09/09 11:15:51;;;;;;;;;;;27.80;51.00;;;;;;4066133;29;20034;-86
2023/09/09 11:21:09;;;;;;;;;;;27.80;53.30;;;;;;4067841;29;20436;-87
2023/09/09 11:23:31;;;;;;;;;;;27.90;52.10;;;;;;4060694;29;20034;-89
2023/09/09 11:25:52;;;;;;;;;;;27.90;49.40;;;;;;4091196;28;20133;-86
2023/09/09 11:28:14;;;;;;;;;;;28.00;52.00;;;;;;4124779;28;19925;-88
2023/09/09 11:30:40;;;;;;;;;;;28.00;52.20;;;;;;4125931;28;20323;-87
2023/09/09 11:33:00;;;;;;;;;;;28.10;52.30;;;;;;4113416;28;20406;-87
2023/09/09 11:35:22;;;;;;;;;;;28.00;53.10;;;;;;4126955;28;19924;-88
2023/09/09 11:37:42;;;;;;;;;;;28.10;52.30;;;;;;4117428;28;19940;-88
2023/09/09 11:40:01;;;;;;;;;;;28.10;52.20;;;;;;4126260;28;19917;-86
2023/09/09 11:42:21;;;;;;;;;;;28.10;52.80;;;;;;4124258;28;19917;-87
2023/09/09 11:44:42;;;;;;;;;;;28.00;53.50;;;;;;4112937;28;20462;-87
2023/09/09 11:47:02;;;;;;;;;;;28.00;54.00;;;;;;4126381;28;20017;-89
2023/09/09 11:49:21;;;;;;;;;;;28.00;53.50;;;;;;4116232;28;20004;-87
2023/09/09 11:51:40;;;;;;;;;;;27.90;53.20;;;;;;4157369;28;19985;-88
2023/09/09 12:00:59;;;;;;;;;;;27.80;54.50;;;;;;4197154;23;19942;-88
2023/09/09 12:03:20;;;;;;;;;;;27.80;54.00;;;;;;4112515;28;19990;-87
2023/09/09 12:05:39;;;;;;;;;;;27.60;54.00;;;;;;4109554;28;19921;-88
2023/09/09 12:07:59;;;;;;;;;;;27.60;54.60;;;;;;4092126;28;20033;-88
2023/09/09 12:10:19;;;;;;;;;;;27.50;54.40;;;;;;4096159;28;20766;-86
2023/09/09 12:12:40;;;;;;;;;;;27.50;54.90;;;;;;4102683;28;19993;-86
2023/09/09 12:15:22;;;;;;;;;;;27.40;55.00;;;;;;4101393;28;19921;-88
2023/09/09 12:17:42;;;;;;;;;;;27.40;55.00;;;;;;4074458;29;19938;-88
2023/09/09 12:20:10;;;;;;;;;;;27.30;55.20;;;;;;4060602;29;19965;-87
2023/09/09 12:22:55;;;;;;;;;;;27.30;55.40;;;;;;4076766;29;19926;-87
2023/09/09 12:30:03;;;;;;;;;;;27.20;55.60;;;;;;3482618;26;19952;-87
2023/09/09 12:32:23;;;;;;;;;;;27.10;55.10;;;;;;4141139;28;19970;-87
2023/09/09 12:34:48;;;;;;;;;;;27.00;54.00;;;;;;4160000;28;19975;-87
2023/09/09 12:37:08;;;;;;;;;;;26.90;54.70;;;;;;4149630;28;20865;-88
2023/09/09 12:39:29;;;;;;;;;;;27.00;55.00;;;;;;4153044;28;19923;-87
2023/09/09 12:41:58;;;;;;;;;;;26.90;55.20;;;;;;4148606;28;20012;-89
2023/09/09 12:44:17;;;;;;;;;;;26.90;55.30;;;;;;4151106;28;19940;-86
2023/09/09 12:46:38;;;;;;;;;;;26.80;55.50;;;;;;4141026;28;20453;-87
2023/09/09 12:48:58;;;;;;;;;;;26.80;54.90;;;;;;4143152;28;19928;-85
2023/09/09 12:51:18;;;;;;;;;;;26.70;55.40;;;;;;4145967;28;20023;-87
2023/09/09 12:53:37;;;;;;;;;;;26.70;55.50;;;;;;4151026;28;19924;-86
2023/09/09 12:55:56;;;;;;;;;;;26.70;55.80;;;;;;4158192;28;20007;-87
2023/09/09 12:58:15;;;;;;;;;;;26.70;56.00;;;;;;4151420;28;19976;-87
2023/09/09 13:00:41;;;;;;;;;;;26.70;56.70;;;;;;4146966;28;19982;-85
2023/09/09 13:03:13;;;;;;;;;;;26.70;56.50;;;;;;4163469;28;20388;-86
2023/09/09 13:05:33;;;;;;;;;;;26.70;56.10;;;;;;4149453;28;19925;-86
2023/09/09 13:07:52;;;;;;;;;;;26.70;56.50;;;;;;4148837;28;20035;-85
2023/09/09 13:10:12;;;;;;;;;;;26.70;56.60;;;;;;4146775;28;19974;-86
2023/09/09 13:12:34;;;;;;;;;;;26.70;57.20;;;;;;4148549;28;19979;-87
2023/09/09 13:14:53;;;;;;;;;;;26.70;56.60;;;;;;4148609;28;20410;-86
2023/09/09 13:17:12;;;;;;;;;;;26.70;56.40;;;;;;4148972;28;19924;-86
2023/09/09 13:19:32;;;;;;;;;;;26.80;56.70;;;;;;4147274;28;20018;-87
2023/09/09 13:21:54;;;;;;;;;;;26.70;56.50;;;;;;4145795;28;19924;-86
2023/09/09 13:24:14;;;;;;;;;;;26.80;56.80;;;;;;4146462;28;20607;-87
2023/09/09 13:26:33;;;;;;;;;;;26.80;56.90;;;;;;4149462;28;19920;-86
2023/09/09 13:28:52;;;;;;;;;;;26.80;56.90;;;;;;4150064;28;20390;-87
2023/09/09 13:31:12;;;;;;;;;;;26.80;56.60;;;;;;4151630;28;19971;-87
2023/09/09 13:33:31;;;;;;;;;;;26.80;56.60;;;;;;4146859;28;19921;-86
2023/09/09 13:35:51;;;;;;;;;;;26.80;56.40;;;;;;4165434;28;19927;-84
2023/09/09 13:38:10;;;;;;;;;;;26.80;57.20;;;;;;4150630;28;19975;-86
2023/09/09 13:40:29;;;;;;;;;;;26.80;57.30;;;;;;4152398;28;19975;-85
2023/09/09 13:42:48;;;;;;;;;;;26.80;56.90;;;;;;4167596;28;19997;-83
2023/09/09 13:45:08;;;;;;;;;;;26.80;56.80;;;;;;4168018;28;19920;-82
2023/09/09 13:47:27;;;;;;;;;;;26.80;57.00;;;;;;4160449;28;19928;-83
2023/09/09 13:49:46;;;;;;;;;;;26.80;55.20;;;;;;4150643;28;20373;-82
2023/09/09 13:52:05;;;;;;;;;;;26.80;53.80;;;;;;4153237;28;19999;-83
2023/09/09 13:54:25;;;;;;;;;;;26.80;54.80;;;;;;4151509;28;19931;-82
2023/09/09 13:56:47;;;;;;;;;;;26.80;55.50;;;;;;4152905;28;19932;-82
2023/09/09 13:59:06;;;;;;;;;;;26.80;55.70;;;;;;4149216;28;19927;-82
2023/09/09 14:01:26;;;;;;;;;;;26.80;55.00;;;;;;4154497;28;19932;-82